createdAt,value
2018-03-22T00:02:20.679Z,7.63
2018-03-22T00:04:49.631Z,7.43
2018-03-22T00:07:17.891Z,7.97
2018-03-22T00:09:46.206Z,7.80
2018-03-22T00:12:14.455Z,8.37
2018-03-22T00:14:42.741Z,8.53
2018-03-22T00:17:10.961Z,4.70
2018-03-22T00:19:40.041Z,7.00
2018-03-22T00:22:08.335Z,6.30
2018-03-22T00:24:36.543Z,6.80
2018-03-22T00:27:04.828Z,7.13
2018-03-22T00:29:33.023Z,7.17
2018-03-22T00:32:01.262Z,7.50
2018-03-22T00:34:29.583Z,7.70
2018-03-22T00:36:57.811Z,7.07
2018-03-22T00:39:26.878Z,7.20
2018-03-22T00:41:55.189Z,8.33
2018-03-22T00:44:23.398Z,6.50
2018-03-22T00:46:51.597Z,6.43
2018-03-22T00:49:19.795Z,6.50
2018-03-22T00:51:48.042Z,6.97
2018-03-22T00:54:16.249Z,6.17
2018-03-22T00:56:44.433Z,6.50
2018-03-22T00:59:12.715Z,6.70
2018-03-22T01:01:40.959Z,6.83
2018-03-22T01:04:09.163Z,6.33
2018-03-22T01:06:37.533Z,6.60
2018-03-22T01:09:05.711Z,6.57
2018-03-22T01:11:33.886Z,6.50
2018-03-22T01:14:02.163Z,6.30
2018-03-22T01:16:30.382Z,7.20
2018-03-22T01:18:59.329Z,6.47
2018-03-22T01:21:27.573Z,7.17
2018-03-22T01:23:55.775Z,6.87
2018-03-22T01:26:23.944Z,7.10
2018-03-22T01:28:52.128Z,7.90
2018-03-22T01:31:20.333Z,7.20
2018-03-22T01:33:49.306Z,6.97
2018-03-22T01:36:17.525Z,7.00
2018-03-22T01:38:45.764Z,6.40
2018-03-22T01:41:14.831Z,7.80
2018-03-22T01:43:43.056Z,7.37
2018-03-22T01:46:11.477Z,9.40
2018-03-22T01:48:39.776Z,10.03
2018-03-22T01:51:07.994Z,8.77
2018-03-22T01:53:36.206Z,9.70
2018-03-22T01:56:04.401Z,10.00
2018-03-22T01:58:32.741Z,10.57
2018-03-22T02:01:01.129Z,11.87
2018-03-22T02:03:29.414Z,11.27
2018-03-22T02:05:57.703Z,12.37
2018-03-22T02:08:25.930Z,12.33
2018-03-22T02:10:54.303Z,13.57
2018-03-22T02:13:22.509Z,13.47
2018-03-22T02:15:50.703Z,12.97
2018-03-22T02:18:18.918Z,15.43
2018-03-22T02:20:47.148Z,14.43
2018-03-22T02:23:15.427Z,16.43
2018-03-22T02:25:43.693Z,17.73
2018-03-22T02:28:11.988Z,19.50
2018-03-22T02:30:40.264Z,19.30
2018-03-22T02:33:09.294Z,20.27
2018-03-22T02:35:37.512Z,26.87
2018-03-22T02:38:05.711Z,29.50
2018-03-22T02:40:34.686Z,33.70
2018-03-22T02:43:03.687Z,35.33
2018-03-22T02:45:31.891Z,30.80
2018-03-22T02:48:00.264Z,28.17
2018-03-22T02:50:28.470Z,31.07
2018-03-22T02:52:56.695Z,28.60
2018-03-22T02:55:25.690Z,27.97
2018-03-22T02:57:54.657Z,26.97
2018-03-22T03:00:22.866Z,27.43
2018-03-22T03:02:51.155Z,31.80
2018-03-22T03:05:19.350Z,31.40
2018-03-22T03:07:47.560Z,29.27
2018-03-22T03:10:15.800Z,29.77
2018-03-22T03:12:44.021Z,34.20
2018-03-22T03:15:12.304Z,37.50
2018-03-22T03:17:40.526Z,34.47
2018-03-22T03:20:08.794Z,31.10
2018-03-22T03:22:37.130Z,35.17
2018-03-22T03:25:06.082Z,37.00
2018-03-22T03:27:34.264Z,35.60
2018-03-22T03:30:02.573Z,36.53
2018-03-22T03:32:30.898Z,36.13
2018-03-22T03:34:59.163Z,28.70
2018-03-22T03:37:27.431Z,33.90
2018-03-22T03:39:55.619Z,29.40
2018-03-22T03:42:23.788Z,32.53
2018-03-22T03:44:52.011Z,27.83
2018-03-22T03:47:21.057Z,31.23
2018-03-22T03:49:49.274Z,31.30
2018-03-22T03:52:18.238Z,29.70
2018-03-22T03:54:46.463Z,30.73
2018-03-22T03:57:14.664Z,26.47
2018-03-22T03:59:42.900Z,29.70
2018-03-22T04:02:11.892Z,30.00
2018-03-22T04:04:40.974Z,29.60
2018-03-22T04:07:10.040Z,24.63
2018-03-22T04:09:38.828Z,29.27
2018-03-22T04:12:07.034Z,27.33
2018-03-22T04:14:36.054Z,29.70
2018-03-22T04:17:04.243Z,23.30
2018-03-22T04:19:32.502Z,29.47
2018-03-22T04:22:00.714Z,23.10
2018-03-22T04:24:28.888Z,31.10
2018-03-22T04:26:57.184Z,29.40
2018-03-22T04:29:26.150Z,29.60
2018-03-22T04:31:54.431Z,21.70
2018-03-22T04:34:23.542Z,23.37
2018-03-22T04:36:51.775Z,29.93
2018-03-22T04:39:20.058Z,23.00
2018-03-22T04:41:48.351Z,26.17
2018-03-22T04:44:16.588Z,27.27
2018-03-22T04:46:44.791Z,29.10
2018-03-22T04:49:12.992Z,25.40
2018-03-22T04:51:41.215Z,32.63
2018-03-22T04:54:09.409Z,31.80
2018-03-22T04:56:37.604Z,26.87
2018-03-22T04:59:05.970Z,31.00
2018-03-22T05:01:34.167Z,33.67
2018-03-22T05:04:02.370Z,32.43
2018-03-22T05:06:30.593Z,24.80
2018-03-22T05:08:58.921Z,33.20
2018-03-22T05:11:27.139Z,33.73
2018-03-22T05:13:55.352Z,31.47
2018-03-22T05:16:24.371Z,36.53
2018-03-22T05:18:52.583Z,36.07
2018-03-22T05:21:20.813Z,35.00
2018-03-22T05:23:49.009Z,33.27
2018-03-22T05:26:17.270Z,36.63
2018-03-22T05:28:45.686Z,29.43
2018-03-22T05:31:13.917Z,30.97
2018-03-22T05:33:42.131Z,36.90
2018-03-22T05:36:10.334Z,38.00
2018-03-22T05:38:39.334Z,26.50
2018-03-22T05:41:08.280Z,40.87
2018-03-22T05:43:36.586Z,36.30
2018-03-22T05:46:04.768Z,36.10
2018-03-22T05:48:33.019Z,36.03
2018-03-22T05:51:01.251Z,31.40
2018-03-22T05:53:29.568Z,27.10
2018-03-22T05:55:57.817Z,38.57
2018-03-22T05:58:26.123Z,37.00
2018-03-22T06:00:54.326Z,34.73
2018-03-22T06:03:23.486Z,31.30
2018-03-22T06:05:51.756Z,39.80
2018-03-22T06:08:23.935Z,35.87
2018-03-22T06:10:52.157Z,36.73
2018-03-22T06:13:20.362Z,36.07
2018-03-22T06:15:48.604Z,32.77
2018-03-22T06:18:16.822Z,32.57
2018-03-22T06:20:45.017Z,30.60
2018-03-22T06:23:13.285Z,29.97
2018-03-22T06:25:41.527Z,30.83
2018-03-22T06:28:09.808Z,27.33
2018-03-22T06:30:38.071Z,24.60
2018-03-22T06:33:06.266Z,28.40
2018-03-22T06:35:34.493Z,28.17
2018-03-22T06:38:02.687Z,24.87
2018-03-22T06:40:30.953Z,26.90
2018-03-22T06:42:59.199Z,29.20
2018-03-22T06:45:28.133Z,15.50
2018-03-22T06:47:56.383Z,25.27
2018-03-22T06:50:24.660Z,23.93
2018-03-22T06:52:52.922Z,23.80
2018-03-22T06:55:21.870Z,25.70
2018-03-22T06:57:50.131Z,24.60
2018-03-22T07:00:18.411Z,24.70
2018-03-22T07:02:46.714Z,23.63
2018-03-22T07:05:14.894Z,25.47
2018-03-22T07:07:43.275Z,25.70
2018-03-22T07:10:11.670Z,21.97
2018-03-22T07:12:39.874Z,22.20
2018-03-22T07:15:08.105Z,23.93
2018-03-22T07:17:36.283Z,20.93
2018-03-22T07:20:04.484Z,22.67
2018-03-22T07:22:32.701Z,17.17
2018-03-22T07:25:00.940Z,21.93
2018-03-22T07:27:29.209Z,19.60
2018-03-22T07:29:57.485Z,20.80
2018-03-22T07:32:25.689Z,16.77
2018-03-22T07:34:54.007Z,20.50
2018-03-22T07:37:22.975Z,19.03
2018-03-22T07:39:51.159Z,19.30
2018-03-22T07:42:19.388Z,19.40
2018-03-22T07:44:49.298Z,17.03
2018-03-22T07:47:17.546Z,18.17
2018-03-22T07:49:46.549Z,18.47
2018-03-22T07:52:14.731Z,16.17
2018-03-22T07:54:42.976Z,17.60
2018-03-22T07:57:11.958Z,16.57
2018-03-22T07:59:40.926Z,21.40
2018-03-22T08:02:09.153Z,12.77
2018-03-22T08:04:37.390Z,16.90
2018-03-22T08:07:05.718Z,19.17
2018-03-22T08:09:33.955Z,18.40
2018-03-22T08:12:02.207Z,19.33
2018-03-22T08:14:30.456Z,18.03
2018-03-22T08:16:58.639Z,22.00
2018-03-22T08:19:26.845Z,19.47
2018-03-22T08:21:55.838Z,21.80
2018-03-22T08:24:24.197Z,23.20
2018-03-22T08:26:52.492Z,23.37
2018-03-22T08:29:21.460Z,24.50
2018-03-22T08:31:49.717Z,17.90
2018-03-22T08:34:17.958Z,22.77
2018-03-22T08:36:46.195Z,24.17
2018-03-22T08:39:14.536Z,22.20
2018-03-22T08:41:42.735Z,16.77
2018-03-22T08:44:10.979Z,24.10
2018-03-22T08:46:39.148Z,20.10
2018-03-22T08:49:07.645Z,19.60
2018-03-22T08:51:35.825Z,21.63
2018-03-22T08:54:04.094Z,21.57
2018-03-22T08:56:32.372Z,24.57
2018-03-22T08:59:00.607Z,21.13
2018-03-22T09:01:28.904Z,14.87
2018-03-22T09:03:57.162Z,19.40
2018-03-22T09:06:25.534Z,12.27
2018-03-22T09:08:53.823Z,16.90
2018-03-22T09:11:22.097Z,18.77
2018-03-22T09:13:50.306Z,22.10
2018-03-22T09:16:25.127Z,19.67
2018-03-22T09:18:53.390Z,23.40
2018-03-22T09:21:21.617Z,13.10
2018-03-22T09:23:49.841Z,18.80
2018-03-22T09:26:18.115Z,17.60
2018-03-22T09:28:46.389Z,21.50
2018-03-22T09:31:14.579Z,19.90
2018-03-22T09:33:42.802Z,19.90
2018-03-22T09:36:11.794Z,16.90
2018-03-22T09:38:40.762Z,17.93
2018-03-22T09:41:09.047Z,18.03
2018-03-22T09:43:37.235Z,14.37
2018-03-22T09:46:06.245Z,13.17
2018-03-22T09:48:34.530Z,13.23
2018-03-22T09:51:02.723Z,12.50
2018-03-22T09:53:30.982Z,7.67
2018-03-22T09:55:59.166Z,11.30
2018-03-22T09:58:27.431Z,11.20
2018-03-22T10:00:55.606Z,10.93
2018-03-22T10:03:23.834Z,7.50
2018-03-22T10:05:52.875Z,8.10
2018-03-22T10:08:21.099Z,9.40
2018-03-22T10:10:50.243Z,7.87
2018-03-22T10:13:18.429Z,7.90
2018-03-22T10:15:46.699Z,8.50
2018-03-22T10:18:14.886Z,5.60
2018-03-22T10:20:43.072Z,5.90
2018-03-22T10:23:11.401Z,6.80
2018-03-22T10:25:39.587Z,6.63
2018-03-22T10:28:07.819Z,5.30
2018-03-22T10:30:36.099Z,3.93
2018-03-22T10:33:05.206Z,5.70
2018-03-22T10:35:33.428Z,5.60
2018-03-22T10:38:01.693Z,5.77
2018-03-22T10:40:29.862Z,4.60
2018-03-22T10:42:58.095Z,5.10
2018-03-22T10:45:26.901Z,4.70
2018-03-22T10:47:55.100Z,4.07
2018-03-22T10:50:23.349Z,4.53
2018-03-22T10:52:51.534Z,3.27
2018-03-22T10:55:19.769Z,3.90
2018-03-22T10:57:48.869Z,4.20
2018-03-22T11:00:22.515Z,3.00
2018-03-22T11:02:57.079Z,3.20
2018-03-22T11:05:25.370Z,2.30
2018-03-22T11:07:54.449Z,3.57
2018-03-22T11:10:23.405Z,3.17
2018-03-22T11:12:51.740Z,3.30
2018-03-22T11:15:20.760Z,3.00
2018-03-22T11:17:48.933Z,3.23
2018-03-22T11:20:17.123Z,3.10
2018-03-22T11:22:45.295Z,2.60
2018-03-22T11:25:13.527Z,2.87
2018-03-22T11:27:41.734Z,3.13
2018-03-22T11:30:10.015Z,2.30
2018-03-22T11:32:38.190Z,2.60
2018-03-22T11:35:06.377Z,3.13
2018-03-22T11:37:34.549Z,3.23
2018-03-22T11:40:02.816Z,2.80
2018-03-22T11:42:31.346Z,2.33
2018-03-22T11:45:00.298Z,2.60
2018-03-22T11:47:28.626Z,2.80
2018-03-22T11:49:56.845Z,3.40
2018-03-22T11:52:25.060Z,2.77
2018-03-22T11:54:54.158Z,2.33
2018-03-22T11:57:23.131Z,2.70
2018-03-22T11:59:52.266Z,1.37
2018-03-22T12:02:20.562Z,2.20
2018-03-22T12:04:48.822Z,2.20
2018-03-22T12:07:17.061Z,2.13
2018-03-22T12:09:45.257Z,2.17
2018-03-22T12:12:13.780Z,2.80
2018-03-22T12:14:41.970Z,2.00
2018-03-22T12:17:10.151Z,2.30
2018-03-22T12:19:38.322Z,2.60
2018-03-22T12:22:06.560Z,2.33
2018-03-22T12:24:34.778Z,3.10
2018-03-22T12:27:03.784Z,2.60
2018-03-22T12:29:32.062Z,3.87
2018-03-22T12:32:01.113Z,2.50
2018-03-22T12:34:29.608Z,2.70
2018-03-22T12:36:57.800Z,3.20
2018-03-22T12:39:26.167Z,2.97
2018-03-22T12:41:55.169Z,3.03
2018-03-22T12:44:24.150Z,2.87
2018-03-22T12:46:52.369Z,2.20
2018-03-22T12:49:20.600Z,2.20
2018-03-22T12:51:48.809Z,2.27
2018-03-22T12:54:16.994Z,2.43
2018-03-22T12:56:45.207Z,2.20
2018-03-22T12:59:13.400Z,3.07
2018-03-22T13:01:42.418Z,2.10
2018-03-22T13:04:10.605Z,2.67
2018-03-22T13:06:38.968Z,3.47
2018-03-22T13:09:07.236Z,3.70
2018-03-22T13:11:35.474Z,4.10
2018-03-22T13:14:03.811Z,3.70
2018-03-22T13:16:32.006Z,4.33
2018-03-22T13:19:00.256Z,2.90
2018-03-22T13:21:28.479Z,3.83
2018-03-22T13:23:56.761Z,3.73
2018-03-22T13:26:24.964Z,3.40
2018-03-22T13:28:53.149Z,3.60
2018-03-22T13:31:21.365Z,3.70
2018-03-22T13:33:49.611Z,3.50
2018-03-22T13:36:17.875Z,2.90
2018-03-22T13:38:46.046Z,3.63
2018-03-22T13:41:14.239Z,4.20
2018-03-22T13:43:42.518Z,4.10
2018-03-22T13:46:10.738Z,3.83
2018-03-22T13:48:39.058Z,5.00
2018-03-22T13:51:07.219Z,3.67
2018-03-22T13:53:35.467Z,3.97
2018-03-22T13:56:03.694Z,3.50
2018-03-22T13:58:31.892Z,3.90
2018-03-22T14:01:01.019Z,4.23
2018-03-22T14:03:29.396Z,4.27
2018-03-22T14:05:57.687Z,4.13
2018-03-22T14:08:25.879Z,4.40
2018-03-22T14:10:54.141Z,4.53
2018-03-22T14:13:22.346Z,4.80
2018-03-22T14:15:50.582Z,2.73
2018-03-22T14:18:18.777Z,4.20
2018-03-22T14:20:47.171Z,5.07
2018-03-22T14:23:15.429Z,4.43
2018-03-22T14:25:43.659Z,4.33
2018-03-22T14:28:12.661Z,3.87
2018-03-22T14:30:41.047Z,3.23
2018-03-22T14:33:09.317Z,5.40
2018-03-22T14:35:37.569Z,5.00
2018-03-22T14:38:06.622Z,4.97
2018-03-22T14:40:34.936Z,5.03
2018-03-22T14:43:03.916Z,4.43
2018-03-22T14:45:32.096Z,4.70
2018-03-22T14:48:00.302Z,3.20
2018-03-22T14:50:28.487Z,4.77
2018-03-22T14:52:56.691Z,4.90
2018-03-22T14:55:24.975Z,4.90
2018-03-22T14:57:53.158Z,2.50
2018-03-22T15:00:21.361Z,3.80
2018-03-22T15:02:50.354Z,4.13
2018-03-22T15:05:18.600Z,3.27
2018-03-22T15:07:46.910Z,3.60
2018-03-22T15:10:15.086Z,3.50
2018-03-22T15:12:43.280Z,3.20
2018-03-22T15:15:11.511Z,3.67
2018-03-22T15:17:40.487Z,3.20
2018-03-22T15:20:09.099Z,2.60
2018-03-22T15:22:38.131Z,3.97
2018-03-22T15:25:06.332Z,3.90
2018-03-22T15:27:34.530Z,4.70
2018-03-22T15:30:02.980Z,3.40
2018-03-22T15:32:31.254Z,5.23
2018-03-22T15:34:59.442Z,5.07
2018-03-22T15:37:27.660Z,4.90
2018-03-22T15:39:56.020Z,5.33
2018-03-22T15:42:24.983Z,5.20
2018-03-22T15:44:53.280Z,5.63
2018-03-22T15:47:22.323Z,5.47
2018-03-22T15:49:50.669Z,6.00
2018-03-22T15:52:18.966Z,5.30
2018-03-22T15:54:47.182Z,4.90
2018-03-22T15:57:15.415Z,4.67
2018-03-22T15:59:43.748Z,4.40
2018-03-22T16:02:11.925Z,5.70
2018-03-22T16:04:40.906Z,5.20
2018-03-22T16:07:09.894Z,5.03
2018-03-22T16:09:39.006Z,5.33
2018-03-22T16:12:07.957Z,5.90
2018-03-22T16:14:36.158Z,5.70
2018-03-22T16:17:05.143Z,5.33
2018-03-22T16:19:33.533Z,5.43
2018-03-22T16:22:02.591Z,5.60
2018-03-22T16:24:30.840Z,6.40
2018-03-22T16:26:59.176Z,6.10
2018-03-22T16:29:28.172Z,5.70
2018-03-22T16:31:57.271Z,6.43
2018-03-22T16:34:26.297Z,6.27
2018-03-22T16:36:54.489Z,6.10
2018-03-22T16:39:22.704Z,6.57
2018-03-22T16:41:51.717Z,6.27
2018-03-22T16:44:19.947Z,6.67
2018-03-22T16:46:48.204Z,6.97
2018-03-22T16:49:16.480Z,6.53
2018-03-22T16:51:44.746Z,7.77
2018-03-22T16:54:12.941Z,6.73
2018-03-22T16:56:41.114Z,6.67
2018-03-22T16:59:09.585Z,8.67
2018-03-22T17:01:37.811Z,7.93
2018-03-22T17:04:06.755Z,7.80
2018-03-22T17:06:34.986Z,7.87
2018-03-22T17:09:03.267Z,9.13
2018-03-22T17:11:31.430Z,8.13
2018-03-22T17:13:59.758Z,8.47
2018-03-22T17:16:27.992Z,10.30
2018-03-22T17:18:56.307Z,9.30
2018-03-22T17:21:24.566Z,9.77
2018-03-22T17:23:52.840Z,10.97
2018-03-22T17:26:21.015Z,9.63
2018-03-22T17:28:49.271Z,9.53
2018-03-22T17:31:17.537Z,7.90
2018-03-22T17:33:45.749Z,9.50
2018-03-22T17:36:14.011Z,10.53
2018-03-22T17:38:42.306Z,10.23
2018-03-22T17:41:11.297Z,9.50
2018-03-22T17:43:39.530Z,9.93
2018-03-22T17:46:07.892Z,10.30
2018-03-22T17:48:42.424Z,11.73
2018-03-22T17:51:10.594Z,12.30
2018-03-22T17:53:38.815Z,11.33
2018-03-22T17:56:07.009Z,9.87
2018-03-22T17:58:35.208Z,11.13
2018-03-22T18:01:03.465Z,11.23
2018-03-22T18:03:32.474Z,8.77
2018-03-22T18:06:00.714Z,10.10
2018-03-22T18:08:28.970Z,10.43
2018-03-22T18:10:57.249Z,11.00
2018-03-22T18:13:25.425Z,10.67
2018-03-22T18:15:53.606Z,11.10
2018-03-22T18:18:21.798Z,11.30
2018-03-22T18:20:50.111Z,11.40
2018-03-22T18:23:18.350Z,11.27
2018-03-22T18:25:47.363Z,10.60
2018-03-22T18:28:15.608Z,10.80
2018-03-22T18:30:43.834Z,12.20
2018-03-22T18:33:12.027Z,9.37
2018-03-22T18:35:40.215Z,11.00
2018-03-22T18:38:08.408Z,10.03
2018-03-22T18:40:37.459Z,12.47
2018-03-22T18:43:05.649Z,13.33
2018-03-22T18:45:34.700Z,10.67
2018-03-22T18:48:02.926Z,12.30
2018-03-22T18:50:31.190Z,11.40
2018-03-22T18:52:59.386Z,10.33
2018-03-22T18:55:27.936Z,10.60
2018-03-22T18:57:56.411Z,10.70
2018-03-22T19:00:24.807Z,9.83
2018-03-22T19:02:53.329Z,8.20
2018-03-22T19:05:21.616Z,10.40
2018-03-22T19:07:50.397Z,9.83
2018-03-22T19:10:18.841Z,8.83
2018-03-22T19:12:47.285Z,9.20
2018-03-22T19:15:16.620Z,9.73
2018-03-22T19:17:45.322Z,9.17
2018-03-22T19:20:16.570Z,10.20
2018-03-22T19:22:44.940Z,9.17
2018-03-22T19:25:13.368Z,9.60
2018-03-22T19:27:41.792Z,8.67
2018-03-22T19:30:11.517Z,8.20
2018-03-22T19:32:40.816Z,9.37
2018-03-22T19:35:10.510Z,9.10
2018-03-22T19:37:39.642Z,8.17
2018-03-22T19:40:08.192Z,8.60
2018-03-22T19:42:37.546Z,7.70
2018-03-22T19:45:07.540Z,8.20
2018-03-22T19:47:36.161Z,8.80
2018-03-22T19:50:04.539Z,8.70
2018-03-22T19:52:32.971Z,8.20
2018-03-22T19:55:01.417Z,8.10
2018-03-22T19:57:30.635Z,9.10
2018-03-22T19:59:59.077Z,7.50
2018-03-22T20:02:27.605Z,8.23
2018-03-22T20:04:56.060Z,6.47
2018-03-22T20:07:24.968Z,8.40
2018-03-22T20:09:53.362Z,9.07
2018-03-22T20:12:22.148Z,8.90
2018-03-22T20:14:50.798Z,10.03
2018-03-22T20:17:19.952Z,9.10
2018-03-22T20:19:48.379Z,9.13
2018-03-22T20:22:16.808Z,9.60
2018-03-22T20:24:45.169Z,8.43
2018-03-22T20:27:13.538Z,7.57
2018-03-22T20:29:41.899Z,7.97
2018-03-22T20:32:11.101Z,9.47
2018-03-22T20:34:39.431Z,8.30
2018-03-22T20:37:07.765Z,8.10
2018-03-22T20:39:37.078Z,7.73
2018-03-22T20:42:05.405Z,7.23
2018-03-22T20:44:34.668Z,6.83
2018-03-22T20:47:02.973Z,7.87
2018-03-22T20:49:31.337Z,6.77
2018-03-22T20:52:00.420Z,6.33
2018-03-22T20:54:28.857Z,6.40
2018-03-22T20:56:58.023Z,6.97
2018-03-22T20:59:26.454Z,7.80
2018-03-22T21:01:54.833Z,6.67
2018-03-22T21:04:23.256Z,6.83
2018-03-22T21:06:51.684Z,6.00
2018-03-22T21:09:19.987Z,6.20
2018-03-22T21:11:48.341Z,6.00
2018-03-22T21:14:16.681Z,6.23
2018-03-22T21:16:45.003Z,5.87
2018-03-22T21:19:13.450Z,6.57
2018-03-22T21:21:41.879Z,4.37
2018-03-22T21:24:10.266Z,5.50
2018-03-22T21:26:38.647Z,5.27
2018-03-22T21:29:07.935Z,5.90
2018-03-22T21:31:36.232Z,5.33
2018-03-22T21:34:04.773Z,5.83
2018-03-22T21:36:33.110Z,6.00
2018-03-22T21:39:02.238Z,5.30
2018-03-22T21:41:30.577Z,5.53
2018-03-22T21:44:16.445Z,5.40
2018-03-22T21:46:44.854Z,4.83
2018-03-22T21:49:13.035Z,6.00
2018-03-22T21:51:41.983Z,5.57
2018-03-22T21:54:10.174Z,3.90
2018-03-22T21:56:38.389Z,5.47
2018-03-22T21:59:06.670Z,5.53
2018-03-22T22:01:34.875Z,4.57
2018-03-22T22:04:03.087Z,5.07
2018-03-22T22:06:32.071Z,4.50
2018-03-22T22:09:00.279Z,4.43
2018-03-22T22:11:28.474Z,5.77
2018-03-22T22:13:56.713Z,5.03
2018-03-22T22:16:24.924Z,4.90
2018-03-22T22:18:53.244Z,5.70
2018-03-22T22:21:22.188Z,4.80
2018-03-22T22:23:50.516Z,5.60
2018-03-22T22:26:19.514Z,6.50
2018-03-22T22:28:48.538Z,6.17
2018-03-22T22:31:16.792Z,5.97
2018-03-22T22:33:45.050Z,5.40
2018-03-22T22:36:13.211Z,5.93
2018-03-22T22:38:41.407Z,5.83
2018-03-22T22:41:10.375Z,5.90
2018-03-22T22:43:38.595Z,6.20
2018-03-22T22:46:06.788Z,5.60
2018-03-22T22:48:34.952Z,5.70
2018-03-22T22:51:03.147Z,6.20
2018-03-22T22:53:31.430Z,5.40
2018-03-22T22:55:59.631Z,5.80
2018-03-22T22:58:28.623Z,6.13
2018-03-22T23:00:57.682Z,5.37
2018-03-22T23:03:25.883Z,5.80
2018-03-22T23:05:54.847Z,5.97
2018-03-22T23:08:23.045Z,6.00
2018-03-22T23:10:52.068Z,5.67
2018-03-22T23:13:21.006Z,4.83
2018-03-22T23:15:49.238Z,6.37
2018-03-22T23:18:18.289Z,6.47
2018-03-22T23:20:46.572Z,6.77
2018-03-22T23:23:14.873Z,6.60
2018-03-22T23:25:43.878Z,6.80
2018-03-22T23:28:12.026Z,6.60
2018-03-22T23:30:40.223Z,6.07
2018-03-22T23:33:08.431Z,7.33
2018-03-22T23:35:36.606Z,7.30
2018-03-22T23:38:04.797Z,6.70
2018-03-22T23:40:33.033Z,6.60
2018-03-22T23:43:01.231Z,6.77
2018-03-22T23:45:30.290Z,6.40
2018-03-22T23:50:47.913Z,7.00
2018-03-22T23:53:16.907Z,7.07
2018-03-22T23:55:45.132Z,7.43
2018-03-22T23:58:13.347Z,7.00
